Time;durP1;ratioP1;P1;durP2;ratioP2;P2;SDS_P1;SDS_P2;PMS_P1;PMS_P2;Temp;Humidity;BMP_temperature;BMP_pressure;BME280_temperature;BME280_humidity;BME280_pressure;Samples;Min_cycle;Max_cycle;Signal;HPM_P1;HPM_P2
2022/10/12 00:31:33;;;;;;;8.93;4.00;;;7.00;99.90;;;;;;5073309;28;20049;-64
2022/10/12 00:34:01;;;;;;;9.27;4.70;;;7.00;99.90;;;;;;5073539;28;20100;-64
2022/10/12 00:36:32;;;;;;;7.45;4.15;;;7.10;99.90;;;;;;5072197;28;20447;-64
2022/10/12 00:38:59;;;;;;;9.55;4.68;;;7.00;99.90;;;;;;5074551;28;20040;-64
2022/10/12 00:41:29;;;;;;;7.22;4.93;;;7.10;99.90;;;;;;5077879;28;20037;-63
2022/10/12 00:43:55;;;;;;;8.80;4.68;;;7.00;99.90;;;;;;5077468;28;20040;-64
2022/10/12 00:46:39;;;;;;;8.52;4.35;;;7.10;99.90;;;;;;5077316;28;20394;-63
2022/10/12 00:49:13;;;;;;;5.72;4.70;;;7.10;99.90;;;;;;5076213;28;20481;-64
2022/10/12 00:51:40;;;;;;;12.65;4.97;;;7.10;99.90;;;;;;5077236;28;20352;-64
2022/10/12 00:54:13;;;;;;;9.10;4.88;;;7.00;99.90;;;;;;5076924;28;20032;-64
2022/10/12 00:56:42;;;;;;;11.32;5.15;;;7.00;99.90;;;;;;5077166;28;20040;-64
2022/10/12 00:59:20;;;;;;;9.65;4.30;;;7.00;99.90;;;;;;5077072;28;20115;-64
2022/10/12 01:01:46;;;;;;;11.10;4.82;;;7.10;99.90;;;;;;5077108;28;20051;-64
2022/10/12 01:04:12;;;;;;;8.38;4.82;;;7.10;99.90;;;;;;5076985;28;20036;-63
2022/10/12 01:06:38;;;;;;;11.23;5.13;;;7.20;99.90;;;;;;5076607;28;20044;-64
2022/10/12 01:09:03;;;;;;;7.57;4.55;;;7.10;99.90;;;;;;5076660;28;20045;-64
2022/10/12 01:11:29;;;;;;;10.05;4.57;;;7.10;99.90;;;;;;5076980;28;20154;-64
2022/10/12 01:13:56;;;;;;;11.25;5.13;;;7.00;99.90;;;;;;5076763;28;20094;-64
2022/10/12 01:16:37;;;;;;;7.93;4.68;;;7.00;99.90;;;;;;5076788;28;20039;-64
2022/10/12 01:19:14;;;;;;;9.02;3.83;;;6.90;99.90;;;;;;5076544;28;20036;-64
2022/10/12 01:21:48;;;;;;;7.45;3.88;;;7.00;99.90;;;;;;5076624;28;20048;-64
2022/10/12 01:24:40;;;;;;;9.10;3.13;;;7.00;99.90;;;;;;5076463;28;20475;-64
2022/10/12 01:27:26;;;;;;;6.13;3.10;;;6.90;99.90;;;;;;5076476;28;20555;-64
2022/10/12 01:30:01;;;;;;;6.10;3.38;;;6.90;99.90;;;;;;5091979;28;20055;-64
2022/10/12 01:32:31;;;;;;;7.38;3.03;;;6.80;99.90;;;;;;5117008;28;20090;-64
2022/10/12 01:35:27;;;;;;;6.40;3.20;;;6.80;99.90;;;;;;5117121;28;20063;-64
2022/10/12 01:38:14;;;;;;;8.30;3.20;;;6.90;99.90;;;;;;5116755;28;20042;-64
2022/10/12 01:41:14;;;;;;;7.20;3.28;;;7.00;99.90;;;;;;5116955;28;20046;-65
2022/10/12 01:43:43;;;;;;;11.43;2.80;;;7.00;99.90;;;;;;5117012;28;20040;-64
2022/10/12 01:46:14;;;;;;;5.13;2.78;;;7.00;99.90;;;;;;5116853;28;20389;-64
2022/10/12 01:48:41;;;;;;;5.55;3.00;;;7.00;99.90;;;;;;5116834;28;20076;-64
2022/10/12 01:51:09;;;;;;;6.00;2.75;;;7.00;99.90;;;;;;5097531;28;20035;-64
2022/10/12 01:53:46;;;;;;;9.55;3.97;;;7.00;99.90;;;;;;5116774;28;20123;-64
2022/10/12 01:56:24;;;;;;;8.13;3.65;;;7.00;99.90;;;;;;5116712;28;20043;-64
2022/10/12 01:58:58;;;;;;;6.72;3.35;;;7.00;99.90;;;;;;5116563;28;20080;-64
2022/10/12 02:01:31;;;;;;;6.35;2.90;;;6.90;99.90;;;;;;5116326;28;20122;-64
2022/10/12 02:04:04;;;;;;;5.50;2.80;;;6.80;99.90;;;;;;5116585;28;20390;-64
2022/10/12 02:06:38;;;;;;;6.82;3.17;;;6.80;99.90;;;;;;5116498;28;20046;-64
2022/10/12 02:09:15;;;;;;;4.15;2.85;;;6.90;99.90;;;;;;5116408;28;20039;-64
2022/10/12 02:11:43;;;;;;;5.32;3.40;;;6.90;99.90;;;;;;5116333;28;20040;-65
2022/10/12 02:14:15;;;;;;;10.00;3.05;;;6.90;99.90;;;;;;5116234;28;20040;-65
2022/10/12 02:16:53;;;;;;;3.72;2.28;;;7.60;99.90;;;;;;5116419;28;20032;-65
2022/10/12 02:19:25;;;;;;;7.43;2.90;;;6.80;99.90;;;;;;5098078;28;20377;-65
2022/10/12 02:21:53;;;;;;;4.68;2.55;;;6.90;99.90;;;;;;5116242;28;20377;-65
2022/10/12 02:24:20;;;;;;;3.83;2.78;;;6.90;99.90;;;;;;5116201;28;20063;-65
2022/10/12 02:26:49;;;;;;;3.78;2.78;;;7.00;99.90;;;;;;5114818;28;20070;-65
2022/10/12 02:29:19;;;;;;;7.32;3.05;;;7.00;99.90;;;;;;5116489;28;20036;-64
2022/10/12 02:31:55;;;;;;;3.35;2.40;;;7.00;99.90;;;;;;5114579;28;20040;-65
2022/10/12 02:34:29;;;;;;;6.75;3.08;;;7.00;99.90;;;;;;5114222;28;20529;-65
2022/10/12 02:37:16;;;;;;;8.60;3.58;;;7.00;99.90;;;;;;5115562;28;20040;-65
2022/10/12 02:39:53;;;;;;;8.15;3.75;;;7.00;99.90;;;;;;5115750;28;20501;-65
2022/10/12 02:42:28;;;;;;;8.07;3.97;;;7.00;99.90;;;;;;5115766;28;20111;-65
2022/10/12 02:44:56;;;;;;;8.52;2.95;;;7.10;99.90;;;;;;5115703;28;20038;-65
2022/10/12 02:47:25;;;;;;;6.20;3.08;;;7.10;99.90;;;;;;5115615;28;20032;-65
2022/10/12 02:49:52;;;;;;;8.13;3.40;;;7.20;99.90;;;;;;5115692;28;20119;-65
2022/10/12 02:52:18;;;;;;;8.00;3.13;;;7.20;99.90;;;;;;5115708;28;20044;-64
2022/10/12 02:54:44;;;;;;;4.38;2.90;;;7.30;99.90;;;;;;5115550;28;20435;-64
2022/10/12 02:57:09;;;;;;;8.00;3.03;;;7.20;99.90;;;;;;5115080;28;20500;-65
2022/10/12 02:59:35;;;;;;;4.97;3.17;;;7.20;99.90;;;;;;5115838;28;20063;-65
2022/10/12 03:02:01;;;;;;;7.65;3.42;;;7.30;99.90;;;;;;5113947;28;20111;-65
2022/10/12 03:04:26;;;;;;;8.88;3.30;;;7.30;99.90;;;;;;5113743;28;20497;-65
2022/10/12 03:06:52;;;;;;;12.15;3.60;;;7.40;99.90;;;;;;5114218;28;20031;-65
2022/10/12 03:09:17;;;;;;;9.10;3.33;;;7.30;99.90;;;;;;5115009;28;20051;-65
2022/10/12 03:11:43;;;;;;;8.63;3.40;;;7.30;99.90;;;;;;5096944;28;20036;-65
2022/10/12 03:14:16;;;;;;;7.00;3.03;;;7.20;99.90;;;;;;5114937;28;20032;-65
2022/10/12 03:16:45;;;;;;;8.20;4.35;;;7.20;99.90;;;;;;5115133;28;20126;-65
2022/10/12 03:19:10;;;;;;;10.60;3.10;;;7.30;99.90;;;;;;5115081;28;20031;-65
2022/10/12 03:21:36;;;;;;;11.68;3.60;;;7.20;99.90;;;;;;5114519;28;20276;-65
2022/10/12 03:24:02;;;;;;;12.57;4.13;;;7.20;99.90;;;;;;5112944;28;20039;-64
2022/10/12 03:26:27;;;;;;;9.52;3.63;;;7.20;99.90;;;;;;5132693;27;20031;-64
2022/10/12 03:28:53;;;;;;;7.43;3.88;;;7.20;99.90;;;;;;5134253;27;20122;-64
2022/10/12 03:31:19;;;;;;;7.13;3.33;;;7.20;99.90;;;;;;5133985;27;20058;-64
2022/10/12 03:33:44;;;;;;;8.68;3.75;;;7.10;99.90;;;;;;5134027;27;20066;-65
2022/10/12 03:36:10;;;;;;;8.57;3.75;;;7.20;99.90;;;;;;5134230;27;20102;-65
2022/10/12 03:38:35;;;;;;;6.05;3.15;;;7.10;99.90;;;;;;5135146;27;20478;-65
2022/10/12 03:41:01;;;;;;;8.13;2.85;;;7.10;99.90;;;;;;5135250;27;20058;-65
2022/10/12 03:43:26;;;;;;;9.73;3.70;;;7.10;99.90;;;;;;5135148;27;20074;-65
2022/10/12 03:45:53;;;;;;;7.15;3.42;;;7.10;99.90;;;;;;5116658;27;20042;-65
2022/10/12 03:48:18;;;;;;;11.82;3.80;;;7.10;99.90;;;;;;5135193;27;20043;-65
2022/10/12 03:50:49;;;;;;;8.80;3.20;;;7.20;99.90;;;;;;5134804;27;20039;-65
2022/10/12 03:53:15;;;;;;;8.05;3.15;;;7.10;99.90;;;;;;5135051;27;20035;-65
2022/10/12 03:55:41;;;;;;;10.73;3.42;;;7.10;99.90;;;;;;5135023;27;20035;-63
2022/10/12 03:58:07;;;;;;;10.60;3.58;;;7.10;99.90;;;;;;5134878;27;20027;-65
2022/10/12 04:00:32;;;;;;;8.68;3.70;;;7.10;99.90;;;;;;5134322;27;20111;-64
2022/10/12 04:02:58;;;;;;;7.55;3.72;;;7.20;99.90;;;;;;5133193;27;20122;-64
2022/10/12 04:05:24;;;;;;;11.32;3.83;;;7.10;99.90;;;;;;5133052;27;20066;-64
2022/10/12 04:07:50;;;;;;;9.85;4.43;;;7.20;99.90;;;;;;5134226;27;20039;-64
2022/10/12 04:10:15;;;;;;;6.88;3.45;;;7.20;99.90;;;;;;5134827;27;20043;-64
2022/10/12 04:12:41;;;;;;;9.85;3.92;;;7.20;99.90;;;;;;5134707;28;20117;-64
2022/10/12 04:15:07;;;;;;;11.90;3.53;;;7.20;99.90;;;;;;5134325;27;20111;-64
2022/10/12 04:17:33;;;;;;;9.93;4.28;;;7.30;99.90;;;;;;5134795;27;20110;-64
2022/10/12 04:19:59;;;;;;;9.25;3.97;;;7.30;99.90;;;;;;5134711;27;20432;-64
2022/10/12 04:22:24;;;;;;;15.77;5.25;;;7.40;99.90;;;;;;5134473;28;20039;-64
2022/10/12 04:24:50;;;;;;;9.77;3.33;;;7.30;99.90;;;;;;5134590;27;20031;-64
2022/10/12 04:27:16;;;;;;;8.30;4.03;;;7.30;99.90;;;;;;5116906;28;20423;-65
2022/10/12 04:29:42;;;;;;;14.98;4.38;;;7.30;99.90;;;;;;5134442;28;20051;-65
2022/10/12 04:32:08;;;;;;;8.88;3.90;;;7.30;99.90;;;;;;5131620;28;20397;-65
2022/10/12 04:34:35;;;;;;;9.05;3.85;;;7.40;99.90;;;;;;5112801;28;20035;-65
2022/10/12 04:37:01;;;;;;;10.18;4.00;;;7.30;99.90;;;;;;5113277;28;20054;-65
2022/10/12 04:39:27;;;;;;;10.13;3.95;;;7.30;99.90;;;;;;5095851;28;20374;-65
2022/10/12 04:41:53;;;;;;;10.13;4.20;;;7.30;99.90;;;;;;5112874;28;20040;-65
2022/10/12 04:44:19;;;;;;;11.05;3.78;;;7.20;99.90;;;;;;5113838;28;20039;-65
2022/10/12 04:46:45;;;;;;;9.35;4.03;;;7.20;99.90;;;;;;5113873;28;20486;-65
2022/10/12 04:49:11;;;;;;;10.43;3.72;;;7.20;99.90;;;;;;5114084;28;20096;-65
2022/10/12 04:51:36;;;;;;;8.13;3.13;;;7.20;99.90;;;;;;5113648;28;20399;-65
2022/10/12 04:54:02;;;;;;;7.60;3.38;;;7.20;99.90;;;;;;5113893;28;20096;-64
2022/10/12 04:56:28;;;;;;;9.45;3.63;;;7.20;99.90;;;;;;5113685;28;20043;-64
2022/10/12 04:58:53;;;;;;;7.82;3.47;;;7.20;99.90;;;;;;5113860;28;20068;-64
2022/10/12 05:01:19;;;;;;;13.25;4.07;;;7.20;99.90;;;;;;5113437;28;20526;-64
2022/10/12 05:03:45;;;;;;;10.80;4.53;;;7.20;99.90;;;;;;5112083;28;20041;-64
2022/10/12 05:06:10;;;;;;;10.30;3.80;;;7.20;99.90;;;;;;5112325;28;20043;-65
2022/10/12 05:08:36;;;;;;;10.88;4.65;;;7.20;99.90;;;;;;5095338;28;20039;-65
2022/10/12 05:11:02;;;;;;;11.95;4.75;;;7.30;99.90;;;;;;5113187;28;20043;-65
2022/10/12 05:13:28;;;;;;;11.23;4.30;;;7.20;99.90;;;;;;5094859;28;20048;-65
2022/10/12 05:15:54;;;;;;;13.52;5.05;;;7.20;99.90;;;;;;5113748;28;20032;-65
2022/10/12 05:18:19;;;;;;;10.73;4.40;;;7.20;99.90;;;;;;5113603;28;20493;-65
2022/10/12 05:20:45;;;;;;;11.55;4.60;;;7.20;99.90;;;;;;5113575;28;20042;-65
2022/10/12 05:23:11;;;;;;;10.45;4.03;;;7.10;99.90;;;;;;5113499;28;20044;-65
2022/10/12 05:25:37;;;;;;;10.13;4.82;;;7.10;99.90;;;;;;5114040;28;20496;-65
2022/10/12 05:28:02;;;;;;;14.13;3.58;;;7.10;99.90;;;;;;5117246;28;20070;-65
2022/10/12 05:30:29;;;;;;;14.25;4.60;;;7.10;99.90;;;;;;5124782;27;20054;-65
2022/10/12 05:32:54;;;;;;;10.82;4.18;;;7.10;99.90;;;;;;5136637;27;20166;-65
2022/10/12 05:35:20;;;;;;;10.57;4.13;;;7.20;99.90;;;;;;5116905;27;20051;-64
2022/10/12 05:37:46;;;;;;;14.25;4.13;;;7.10;99.90;;;;;;5121150;27;20031;-64
2022/10/12 05:40:13;;;;;;;15.57;4.57;;;7.20;99.90;;;;;;5098302;28;20047;-64
2022/10/12 05:42:38;;;;;;;9.40;4.45;;;7.10;99.90;;;;;;5117124;28;20144;-64
2022/10/12 05:45:04;;;;;;;12.35;4.07;;;7.10;99.90;;;;;;5117012;28;20476;-64
2022/10/12 05:47:30;;;;;;;10.48;4.28;;;7.10;99.90;;;;;;5098438;28;20047;-64
2022/10/12 05:49:56;;;;;;;9.98;4.25;;;7.10;99.90;;;;;;5116721;28;20036;-64
2022/10/12 05:52:22;;;;;;;9.45;4.88;;;7.10;99.90;;;;;;5116701;28;20036;-64
2022/10/12 05:54:48;;;;;;;11.77;5.20;;;7.10;99.90;;;;;;5116735;28;20458;-64
2022/10/12 05:57:15;;;;;;;14.98;5.13;;;7.10;99.90;;;;;;5116954;28;20035;-64
2022/10/12 05:59:41;;;;;;;12.13;4.68;;;7.10;99.90;;;;;;5116583;28;20047;-64
2022/10/12 06:02:12;;;;;;;11.95;5.07;;;7.10;99.90;;;;;;5115765;28;20396;-64
2022/10/12 06:04:38;;;;;;;11.00;5.82;;;7.30;99.90;;;;;;5114745;28;20047;-64
2022/10/12 06:07:03;;;;;;;9.57;4.68;;;7.10;99.90;;;;;;5115601;28;20036;-64
2022/10/12 06:09:29;;;;;;;11.43;5.18;;;7.10;99.90;;;;;;5116494;28;20419;-63
2022/10/12 06:11:54;;;;;;;12.57;5.13;;;7.10;99.90;;;;;;5116120;28;20047;-56
2022/10/12 06:14:20;;;;;;;15.52;5.70;;;7.10;99.90;;;;;;5116379;28;20027;-63
2022/10/12 06:16:46;;;;;;;14.70;5.78;;;7.20;99.90;;;;;;5116064;28;20061;-56
2022/10/12 06:19:11;;;;;;;14.23;5.75;;;7.10;99.90;;;;;;5116000;28;20038;-56
2022/10/12 06:21:37;;;;;;;13.18;6.30;;;7.10;99.90;;;;;;5116045;28;20039;-56
2022/10/12 06:24:03;;;;;;;12.57;5.75;;;7.20;99.90;;;;;;5115968;28;20522;-56
2022/10/12 06:26:28;;;;;;;16.20;6.10;;;7.10;99.90;;;;;;5116088;28;20035;-56
2022/10/12 06:28:54;;;;;;;12.45;5.38;;;7.10;99.90;;;;;;5116059;28;20062;-56
2022/10/12 06:31:20;;;;;;;12.18;5.82;;;7.10;99.90;;;;;;5115323;28;20401;-56
2022/10/12 06:33:45;;;;;;;12.82;6.13;;;7.10;99.90;;;;;;5115626;27;20401;-56
2022/10/12 06:36:11;;;;;;;14.77;6.38;;;7.10;99.90;;;;;;5134552;27;20030;-57
2022/10/12 06:38:37;;;;;;;15.80;6.40;;;7.20;99.90;;;;;;5117700;27;20469;-63
2022/10/12 06:41:02;;;;;;;12.55;6.38;;;7.20;99.90;;;;;;5135974;27;20054;-63
2022/10/12 06:43:28;;;;;;;12.13;6.22;;;7.20;99.90;;;;;;5117716;27;20062;-63
2022/10/12 06:45:59;;;;;;;12.40;6.32;;;7.90;99.90;;;;;;5136337;27;20083;-63
2022/10/12 06:48:24;;;;;;;15.43;6.50;;;7.30;99.90;;;;;;5136329;27;20027;-63
2022/10/12 06:50:50;;;;;;;16.00;7.65;;;7.30;99.90;;;;;;5136081;27;20062;-57
2022/10/12 06:53:16;;;;;;;11.93;6.88;;;7.30;99.90;;;;;;5136505;27;20038;-55
2022/10/12 06:55:41;;;;;;;16.77;7.78;;;7.40;99.90;;;;;;5135939;27;20119;-56
2022/10/12 06:58:07;;;;;;;19.02;7.35;;;7.50;99.90;;;;;;5117671;27;20438;-56
2022/10/12 07:00:33;;;;;;;12.85;6.68;;;7.60;99.90;;;;;;5135915;27;20047;-55
2022/10/12 07:02:59;;;;;;;13.60;6.88;;;7.60;99.90;;;;;;5134936;27;20041;-56
2022/10/12 07:05:24;;;;;;;12.65;7.30;;;7.60;99.90;;;;;;5134158;27;20035;-57
2022/10/12 07:07:50;;;;;;;11.27;6.40;;;7.60;99.90;;;;;;5116311;27;20049;-56
2022/10/12 07:10:16;;;;;;;12.18;6.13;;;7.70;99.90;;;;;;5117188;27;20092;-57
2022/10/12 07:12:41;;;;;;;14.55;6.25;;;7.70;99.90;;;;;;5135674;27;20078;-56
2022/10/12 07:15:08;;;;;;;13.95;6.60;;;7.80;99.90;;;;;;5135617;27;20477;-56
2022/10/12 07:17:33;;;;;;;15.50;6.47;;;7.90;99.90;;;;;;5136162;27;20035;-55
2022/10/12 07:19:59;;;;;;;13.50;6.07;;;8.00;99.90;;;;;;5135562;27;20039;-56
2022/10/12 07:22:25;;;;;;;11.20;5.40;;;8.20;99.90;;;;;;5135607;27;20042;-56
2022/10/12 07:24:51;;;;;;;11.18;4.75;;;8.40;99.90;;;;;;5135493;27;20156;-56
2022/10/12 07:27:17;;;;;;;13.60;5.50;;;8.70;99.90;;;;;;5135258;27;20122;-56
2022/10/12 07:29:42;;;;;;;17.40;5.55;;;9.00;99.90;;;;;;5135195;27;20051;-56
2022/10/12 07:32:08;;;;;;;12.88;5.20;;;9.30;99.90;;;;;;5134867;27;20054;-56
2022/10/12 07:34:34;;;;;;;12.65;4.75;;;9.70;99.90;;;;;;5114427;27;20028;-57
2022/10/12 07:37:00;;;;;;;12.05;4.75;;;10.00;99.90;;;;;;5114220;28;20039;-55
2022/10/12 07:39:26;;;;;;;10.80;4.95;;;10.40;99.90;;;;;;5114692;28;20035;-55
2022/10/12 07:41:52;;;;;;;20.95;6.15;;;10.50;99.90;;;;;;5114637;28;20035;-55
2022/10/12 07:44:18;;;;;;;10.30;4.72;;;10.80;99.90;;;;;;5114514;28;20490;-56
2022/10/12 07:46:45;;;;;;;10.75;4.82;;;11.10;99.90;;;;;;5114592;28;20066;-56
2022/10/12 07:49:12;;;;;;;10.02;4.25;;;11.50;99.90;;;;;;5113728;28;20043;-56
2022/10/12 07:51:38;;;;;;;12.18;4.47;;;11.90;99.90;;;;;;5114666;28;20044;-56
2022/10/12 07:54:04;;;;;;;8.38;3.80;;;12.40;99.90;;;;;;5114547;28;20035;-56
2022/10/12 07:56:30;;;;;;;20.70;4.85;;;12.70;99.90;;;;;;5114494;28;20104;-56
2022/10/12 07:58:57;;;;;;;11.63;3.95;;;13.00;99.90;;;;;;5096023;28;20047;-56
2022/10/12 08:01:25;;;;;;;11.75;4.43;;;13.40;99.90;;;;;;5114455;28;20153;-56
2022/10/12 08:03:51;;;;;;;11.82;4.13;;;13.50;99.90;;;;;;5123734;27;20031;-56
2022/10/12 08:06:19;;;;;;;10.80;4.15;;;13.50;99.90;;;;;;5134057;27;20084;-56
2022/10/12 08:08:45;;;;;;;20.88;4.88;;;13.80;99.90;;;;;;5134739;27;20039;-56
2022/10/12 08:11:11;;;;;;;12.88;4.82;;;13.90;99.90;;;;;;5134773;27;20046;-57
2022/10/12 08:13:38;;;;;;;9.70;3.70;;;14.20;99.90;;;;;;5134846;28;20035;-56
2022/10/12 08:16:07;;;;;;;9.63;4.35;;;14.30;99.90;;;;;;5134559;27;20553;-56
2022/10/12 08:18:32;;;;;;;12.77;4.90;;;14.50;99.90;;;;;;5134682;27;20039;-56
2022/10/12 08:20:58;;;;;;;11.73;4.82;;;14.70;99.90;;;;;;5135263;27;20161;-56
2022/10/12 08:23:24;;;;;;;11.75;4.25;;;15.00;99.90;;;;;;5134499;28;20039;-56
2022/10/12 08:25:52;;;;;;;8.57;3.78;;;15.20;99.90;;;;;;5134665;27;20039;-56
2022/10/12 08:28:18;;;;;;;9.50;3.90;;;15.40;99.90;;;;;;5134571;28;20039;-55
2022/10/12 08:30:43;;;;;;;8.38;3.75;;;15.70;99.90;;;;;;5134223;27;20130;-56
2022/10/12 08:33:09;;;;;;;12.63;4.05;;;15.60;99.90;;;;;;5132793;28;20035;-55
2022/10/12 08:35:37;;;;;;;12.55;4.85;;;15.50;99.90;;;;;;5113055;28;20092;-55
2022/10/12 08:38:03;;;;;;;11.70;4.05;;;15.40;99.90;;;;;;5113457;28;20498;-56
2022/10/12 08:40:31;;;;;;;14.35;5.40;;;15.30;99.90;;;;;;5113956;28;20152;-55
2022/10/12 08:43:21;;;;;;;10.30;4.50;;;15.20;99.90;;;;;;5095544;28;20036;-56
2022/10/12 08:45:51;;;;;;;10.57;4.50;;;15.10;99.90;;;;;;5113757;28;20042;-56
2022/10/12 08:48:45;;;;;;;12.57;5.32;;;14.90;99.90;;;;;;5114009;28;20078;-55
2022/10/12 08:51:15;;;;;;;13.98;5.40;;;14.60;99.90;;;;;;5113707;28;20039;-56
2022/10/12 08:53:51;;;;;;;13.18;5.68;;;14.30;99.90;;;;;;5095747;28;20032;-56
2022/10/12 08:56:18;;;;;;;7.85;4.72;;;14.20;99.90;;;;;;5113897;28;20028;-56
2022/10/12 08:58:45;;;;;;;15.82;5.50;;;13.90;99.90;;;;;;5113777;28;20032;-56
2022/10/12 09:01:17;;;;;;;13.50;5.95;;;13.70;99.90;;;;;;5116804;28;20043;-55
2022/10/12 09:04:08;;;;;;;13.90;6.00;;;13.50;99.90;;;;;;5117329;28;20042;-56
2022/10/12 09:06:44;;;;;;;16.80;5.93;;;13.50;99.90;;;;;;5117422;28;20552;-56
2022/10/12 09:09:28;;;;;;;12.73;5.47;;;13.50;99.90;;;;;;5117513;28;20386;-57
2022/10/12 09:12:19;;;;;;;13.27;6.15;;;13.50;99.90;;;;;;5099234;28;20040;-56
2022/10/12 09:14:48;;;;;;;11.13;5.95;;;13.40;99.90;;;;;;5099326;28;20481;-56
2022/10/12 09:17:17;;;;;;;13.18;6.72;;;13.40;99.90;;;;;;5117411;28;20051;-55
2022/10/12 09:19:42;;;;;;;16.85;6.22;;;13.30;99.90;;;;;;5117247;28;20497;-56
2022/10/12 09:22:18;;;;;;;16.63;6.80;;;13.20;99.90;;;;;;5117147;28;20043;-56
2022/10/12 09:24:46;;;;;;;15.00;6.68;;;13.30;99.90;;;;;;5117357;28;20039;-56
2022/10/12 09:27:15;;;;;;;14.93;6.00;;;13.20;99.90;;;;;;5117330;28;20043;-56
2022/10/12 09:29:45;;;;;;;12.45;6.45;;;13.20;99.90;;;;;;5116988;28;20052;-55
2022/10/12 09:32:50;;;;;;;12.10;5.35;;;13.20;99.90;;;;;;5117016;28;20051;-56
2022/10/12 09:35:15;;;;;;;12.68;5.28;;;13.10;99.90;;;;;;5117412;28;20047;-55
2022/10/12 09:37:51;;;;;;;13.38;6.28;;;13.10;99.90;;;;;;5117037;28;20389;-55
2022/10/12 09:40:25;;;;;;;12.60;4.93;;;13.30;99.90;;;;;;5098690;28;20042;-56
2022/10/12 09:42:53;;;;;;;12.25;4.63;;;13.20;99.90;;;;;;5116856;28;20105;-55
2022/10/12 09:45:21;;;;;;;14.73;4.40;;;13.30;99.90;;;;;;5116848;28;20032;-55
2022/10/12 09:48:14;;;;;;;12.90;4.53;;;13.30;99.90;;;;;;5116872;28;20039;-56
2022/10/12 09:50:56;;;;;;;13.65;3.97;;;13.40;99.90;;;;;;5116902;28;20075;-55
2022/10/12 09:53:28;;;;;;;17.52;4.05;;;13.50;99.90;;;;;;5098270;28;20126;-55
2022/10/12 09:56:07;;;;;;;12.35;3.95;;;13.50;99.90;;;;;;5116738;28;20039;-55
2022/10/12 09:58:55;;;;;;;11.30;3.53;;;13.60;99.90;;;;;;5116666;28;20039;-56
2022/10/12 10:01:26;;;;;;;14.18;4.10;;;13.80;99.90;;;;;;5116635;28;20040;-56
2022/10/12 10:04:12;;;;;;;16.65;3.97;;;14.00;99.90;;;;;;5116372;28;20054;-55
2022/10/12 10:06:41;;;;;;;12.80;3.95;;;14.00;99.90;;;;;;5114747;28;20046;-57
2022/10/12 10:09:34;;;;;;;12.32;4.10;;;14.00;99.90;;;;;;5116048;28;20054;-57
2022/10/12 10:12:12;;;;;;;13.85;4.70;;;14.20;99.90;;;;;;5111145;28;20389;-56
2022/10/12 10:14:40;;;;;;;9.32;3.70;;;14.10;99.90;;;;;;5115823;28;20134;-56
2022/10/12 10:17:06;;;;;;;11.48;4.18;;;14.20;99.90;;;;;;5134480;27;20084;-57
2022/10/12 10:19:31;;;;;;;10.02;3.35;;;14.10;99.90;;;;;;5137107;27;20031;-55
2022/10/12 10:22:05;;;;;;;12.68;3.85;;;14.10;99.90;;;;;;5136755;27;20049;-56
2022/10/12 10:24:32;;;;;;;12.73;3.15;;;14.20;99.90;;;;;;5136546;27;20091;-57
2022/10/12 10:27:01;;;;;;;10.48;3.67;;;14.20;99.90;;;;;;5136570;27;20074;-56
2022/10/12 10:29:38;;;;;;;15.68;4.63;;;14.10;99.90;;;;;;5136464;27;20059;-57
2022/10/12 10:32:25;;;;;;;12.40;3.53;;;14.20;99.90;;;;;;5136475;27;20043;-56
2022/10/12 10:35:12;;;;;;;9.30;3.22;;;14.10;99.90;;;;;;5134583;27;20058;-57
2022/10/12 10:37:57;;;;;;;15.77;3.50;;;14.20;99.90;;;;;;5135005;27;20139;-57
2022/10/12 10:40:50;;;;;;;11.85;3.22;;;14.20;99.90;;;;;;5136590;27;20073;-57
2022/10/12 10:43:35;;;;;;;7.60;2.50;;;14.30;99.90;;;;;;5136273;27;20041;-56
2022/10/12 10:46:31;;;;;;;10.15;2.70;;;14.20;99.90;;;;;;5136557;27;20126;-57
2022/10/12 10:49:05;;;;;;;12.40;2.72;;;14.20;99.90;;;;;;5117613;27;20046;-57
2022/10/12 10:51:48;;;;;;;10.25;2.92;;;14.40;99.90;;;;;;5136107;27;20051;-56
2022/10/12 10:54:36;;;;;;;10.35;2.80;;;14.40;99.90;;;;;;5136069;27;20032;-57
2022/10/12 10:57:05;;;;;;;9.60;2.63;;;14.50;99.90;;;;;;5135928;27;20489;-56
2022/10/12 10:59:42;;;;;;;15.60;3.42;;;14.70;99.90;;;;;;5135860;27;20046;-56
2022/10/12 11:02:17;;;;;;;11.38;2.42;;;14.80;99.90;;;;;;5117711;27;20179;-57
2022/10/12 11:04:48;;;;;;;20.40;2.63;;;15.00;99.90;;;;;;5094965;28;20051;-57
2022/10/12 11:07:24;;;;;;;12.55;2.72;;;15.20;99.90;;;;;;5095011;28;20118;-56
2022/10/12 11:09:55;;;;;;;9.07;2.35;;;15.20;99.90;;;;;;5094706;28;20490;-56
2022/10/12 11:12:36;;;;;;;12.57;3.47;;;15.50;99.90;;;;;;5094729;28;20123;-56
2022/10/12 11:15:14;;;;;;;10.68;2.30;;;15.70;99.90;;;;;;5094740;28;20036;-56
2022/10/12 11:17:49;;;;;;;11.27;2.47;;;16.00;99.90;;;;;;5094639;28;20040;-55
2022/10/12 11:20:45;;;;;;;16.42;3.20;;;15.90;99.90;;;;;;5094596;28;20043;-56
2022/10/12 11:23:27;;;;;;;10.00;2.50;;;16.30;99.90;;;;;;5094535;28;20085;-57
2022/10/12 11:26:16;;;;;;;9.82;2.83;;;16.40;99.90;;;;;;5094401;28;20047;-56
2022/10/12 11:28:42;;;;;;;9.07;2.10;;;16.80;99.90;;;;;;5094543;28;20105;-55
2022/10/12 11:31:20;;;;;;;12.68;2.30;;;17.10;99.90;;;;;;5076045;28;20048;-55
2022/10/12 11:33:47;;;;;;;9.98;2.25;;;17.20;99.90;;;;;;5094382;28;20489;-55
2022/10/12 11:36:18;;;;;;;11.98;3.00;;;17.40;99.90;;;;;;5094430;28;20077;-55
2022/10/12 11:38:59;;;;;;;13.50;2.40;;;17.60;99.90;;;;;;5076277;28;20044;-56
2022/10/12 11:41:44;;;;;;;8.82;2.45;;;17.80;99.90;;;;;;5059563;28;20398;-56
2022/10/12 11:44:21;;;;;;;9.38;2.00;;;17.80;99.90;;;;;;5113162;28;20097;-56
2022/10/12 11:46:57;;;;;;;7.35;2.28;;;17.70;99.90;;;;;;5114601;28;20043;-56
2022/10/12 11:49:33;;;;;;;6.82;1.98;;;17.80;99.90;;;;;;5114436;28;20077;-56
2022/10/12 11:52:07;;;;;;;10.63;2.03;;;17.80;99.90;;;;;;5114469;28;20039;-56
2022/10/12 11:55:10;;;;;;;5.22;1.88;;;18.00;99.90;;;;;;5096462;28;20063;-56
2022/10/12 11:57:39;;;;;;;8.15;1.65;;;18.00;99.90;;;;;;5114272;28;20039;-57
2022/10/12 12:00:37;;;;;;;8.57;2.35;;;17.90;99.90;;;;;;5114389;28;20043;-56
2022/10/12 12:03:37;;;;;;;7.05;2.60;;;18.00;99.90;;;;;;5108752;28;20375;-54
2022/10/12 12:06:28;;;;;;;5.97;1.73;;;17.90;99.60;;;;;;5113168;27;20035;-55
2022/10/12 12:08:53;;;;;;;8.25;1.85;;;18.10;99.90;;;;;;5133604;27;20507;-56
2022/10/12 12:11:25;;;;;;;12.68;2.00;;;18.10;99.90;;;;;;5134409;27;20118;-56
2022/10/12 12:14:10;;;;;;;7.82;1.90;;;18.20;99.90;;;;;;5134774;28;20046;-56
2022/10/12 12:16:42;;;;;;;9.25;1.92;;;18.20;99.90;;;;;;5134658;28;20038;-55
2022/10/12 12:19:15;;;;;;;8.95;2.20;;;18.30;99.90;;;;;;5134543;28;20046;-55
2022/10/12 12:22:09;;;;;;;6.93;1.95;;;18.10;99.90;;;;;;5134690;27;20050;-56
2022/10/12 12:24:36;;;;;;;8.00;2.10;;;18.30;99.90;;;;;;5115882;27;20084;-56
2022/10/12 12:27:01;;;;;;;10.40;2.45;;;18.30;99.90;;;;;;5113967;28;20039;-56
2022/10/12 12:29:28;;;;;;;8.32;1.95;;;18.30;99.90;;;;;;5095507;28;20115;-56
2022/10/12 12:31:58;;;;;;;8.73;2.20;;;18.30;99.90;;;;;;5113975;28;20119;-55
2022/10/12 12:34:25;;;;;;;5.55;1.98;;;18.30;99.90;;;;;;5113618;28;20035;-56
2022/10/12 12:36:51;;;;;;;7.90;2.13;;;18.20;99.90;;;;;;5117391;28;20409;-56
2022/10/12 12:39:24;;;;;;;8.63;2.10;;;18.10;99.90;;;;;;5117663;28;20039;-56
2022/10/12 12:41:54;;;;;;;5.88;1.88;;;18.10;99.60;;;;;;5118335;28;20382;-57
2022/10/12 12:44:41;;;;;;;10.98;2.17;;;18.00;99.80;;;;;;5117903;28;20114;-55
2022/10/12 12:47:07;;;;;;;5.25;1.88;;;17.90;99.90;;;;;;5118009;28;20048;-55
2022/10/12 12:49:55;;;;;;;14.80;1.75;;;17.80;99.90;;;;;;5117845;28;20059;-55
2022/10/12 12:52:27;;;;;;;6.65;1.90;;;17.90;99.90;;;;;;5117800;28;20082;-55
2022/10/12 12:55:47;;;;;;;8.63;2.05;;;17.90;99.90;;;;;;5117813;28;20050;-56
2022/10/12 12:58:47;;;;;;;6.13;2.05;;;17.80;99.90;;;;;;5015197;28;20034;-55
2022/10/12 13:01:15;;;;;;;8.35;1.85;;;17.80;99.90;;;;;;4937593;29;20057;-56
2022/10/12 13:04:33;;;;;;;7.10;1.58;;;17.70;99.90;;;;;;4937463;29;20095;-56
2022/10/12 13:07:32;;;;;;;10.43;1.90;;;17.80;99.90;;;;;;4918573;29;20051;-56
2022/10/12 13:10:25;;;;;;;10.95;2.00;;;17.80;99.90;;;;;;4918346;29;20056;-55
2022/10/12 13:13:01;;;;;;;8.02;2.10;;;17.70;99.90;;;;;;4918161;29;20056;-55
2022/10/12 13:15:45;;;;;;;4.53;2.30;;;17.60;99.90;;;;;;4918504;29;20127;-55
2022/10/12 13:18:29;;;;;;;9.13;2.55;;;17.60;99.90;;;;;;4918325;29;20056;-56
2022/10/12 13:20:56;;;;;;;8.30;2.42;;;17.70;99.90;;;;;;4918398;29;20051;-55
2022/10/12 13:23:24;;;;;;;8.13;2.25;;;17.60;99.90;;;;;;4918145;29;20059;-56
2022/10/12 13:25:56;;;;;;;11.63;1.92;;;17.60;99.90;;;;;;4918273;29;20422;-55
2022/10/12 13:28:26;;;;;;;13.23;1.80;;;17.50;99.90;;;;;;4918242;29;20103;-56
2022/10/12 13:31:14;;;;;;;9.80;2.03;;;17.50;99.90;;;;;;4917918;29;20110;-55
2022/10/12 13:34:04;;;;;;;9.00;1.75;;;17.40;99.90;;;;;;4936970;29;20047;-55
2022/10/12 13:36:33;;;;;;;5.53;1.83;;;17.50;99.90;;;;;;4876419;29;20504;-55
2022/10/12 13:39:07;;;;;;;10.77;2.42;;;17.40;99.90;;;;;;4880505;29;20084;-56